createdAt,value
2019-03-22T00:02:05.017Z,94.30
2019-03-22T00:04:34.977Z,94.30
2019-03-22T00:07:06.826Z,94.30
2019-03-22T00:09:36.785Z,94.30
2019-03-22T00:12:06.770Z,94.30
2019-03-22T00:14:37.136Z,94.40
2019-03-22T00:17:07.358Z,94.40
2019-03-22T00:19:37.321Z,94.40
2019-03-22T00:22:07.298Z,94.40
2019-03-22T00:24:37.246Z,94.50
2019-03-22T00:27:15.854Z,94.50
2019-03-22T00:29:38.838Z,94.50
2019-03-22T00:32:08.845Z,94.60
2019-03-22T00:34:38.807Z,94.60
2019-03-22T00:37:08.811Z,94.60
2019-03-22T00:39:38.750Z,94.60
2019-03-22T00:42:08.712Z,94.70
2019-03-22T00:44:38.655Z,94.70
2019-03-22T00:47:08.634Z,94.70
2019-03-22T00:49:38.577Z,94.70
2019-03-22T00:52:08.561Z,94.70
2019-03-22T00:54:38.906Z,94.60
2019-03-22T00:57:08.986Z,94.60
2019-03-22T00:59:38.952Z,94.70
2019-03-22T01:02:08.922Z,94.70
2019-03-22T01:04:38.870Z,94.60
2019-03-22T01:07:08.848Z,94.70
2019-03-22T01:09:38.807Z,94.70
2019-03-22T01:12:08.835Z,94.70
2019-03-22T01:14:38.792Z,94.70
2019-03-22T01:17:08.876Z,94.70
2019-03-22T01:19:38.841Z,94.80
2019-03-22T01:22:08.820Z,94.70
2019-03-22T01:24:38.857Z,94.80
2019-03-22T01:27:08.879Z,94.70
2019-03-22T01:29:38.867Z,94.90
2019-03-22T01:32:08.903Z,94.70
2019-03-22T01:34:38.844Z,94.70
2019-03-22T01:37:08.812Z,94.80
2019-03-22T01:39:38.760Z,94.70
2019-03-22T01:42:08.742Z,94.80
2019-03-22T01:44:38.685Z,94.80
2019-03-22T01:47:08.772Z,94.80
2019-03-22T01:49:38.720Z,94.90
2019-03-22T01:52:08.702Z,94.80
2019-03-22T01:54:38.698Z,94.90
2019-03-22T01:57:08.707Z,94.80
2019-03-22T01:59:38.657Z,94.80
2019-03-22T02:02:08.830Z,94.90
2019-03-22T02:04:38.778Z,94.90
2019-03-22T02:07:08.734Z,94.90
2019-03-22T02:09:38.670Z,94.90
2019-03-22T02:12:08.651Z,94.90
2019-03-22T02:14:38.596Z,94.90
2019-03-22T02:17:08.582Z,94.90
2019-03-22T02:19:38.543Z,95.00
2019-03-22T02:22:08.522Z,95.00
2019-03-22T02:24:39.107Z,95.00
2019-03-22T02:27:09.058Z,95.30
2019-03-22T02:29:39.021Z,94.90
2019-03-22T02:32:09.018Z,95.00
2019-03-22T02:34:38.966Z,95.00
2019-03-22T02:37:08.937Z,95.00
2019-03-22T02:39:38.957Z,95.10
2019-03-22T02:42:09.154Z,95.10
2019-03-22T02:44:39.106Z,95.00
2019-03-22T02:47:09.087Z,95.00
2019-03-22T02:49:39.033Z,95.00
2019-03-22T02:52:09.012Z,95.00
2019-03-22T02:54:39.020Z,95.00
2019-03-22T02:57:08.995Z,95.00
2019-03-22T02:59:38.959Z,95.10
2019-03-22T03:02:08.945Z,95.10
2019-03-22T03:04:38.901Z,95.10
2019-03-22T03:07:08.882Z,95.10
2019-03-22T03:09:38.844Z,95.10
2019-03-22T03:12:08.814Z,95.10
2019-03-22T03:14:38.753Z,95.10
2019-03-22T03:17:08.747Z,95.10
2019-03-22T03:19:38.687Z,95.10
2019-03-22T03:22:08.643Z,95.10
2019-03-22T03:24:38.587Z,95.20
2019-03-22T03:27:08.569Z,95.20
2019-03-22T03:29:38.530Z,95.10
2019-03-22T03:32:08.533Z,95.10
2019-03-22T03:34:38.476Z,95.10
2019-03-22T03:37:08.427Z,95.20
2019-03-22T03:39:38.465Z,95.30
2019-03-22T03:42:08.415Z,95.30
2019-03-22T03:44:38.396Z,95.40
2019-03-22T03:47:10.501Z,95.30
2019-03-22T03:49:39.957Z,95.40
2019-03-22T03:52:09.913Z,95.30
2019-03-22T03:54:39.895Z,95.30
2019-03-22T03:57:09.839Z,95.30
2019-03-22T03:59:39.829Z,95.20
2019-03-22T04:02:09.773Z,95.30
2019-03-22T04:04:39.896Z,95.30
2019-03-22T04:07:09.925Z,95.40
2019-03-22T04:09:39.908Z,95.30
2019-03-22T04:12:09.866Z,95.40
2019-03-22T04:14:39.833Z,95.50
2019-03-22T04:17:09.782Z,95.50
2019-03-22T04:19:39.747Z,95.60
2019-03-22T04:22:09.723Z,95.60
2019-03-22T04:24:39.697Z,95.60
2019-03-22T04:27:09.649Z,95.60
2019-03-22T04:29:39.750Z,95.60
2019-03-22T04:32:09.720Z,95.60
2019-03-22T04:34:39.712Z,95.80
2019-03-22T04:37:09.683Z,95.70
2019-03-22T04:39:39.661Z,95.70
2019-03-22T04:42:09.902Z,95.80
2019-03-22T04:44:39.870Z,95.70
2019-03-22T04:47:11.021Z,95.70
2019-03-22T04:49:41.911Z,95.70
2019-03-22T04:52:12.748Z,95.70
2019-03-22T04:54:45.510Z,95.80
2019-03-22T04:57:16.750Z,95.80
2019-03-22T04:59:48.808Z,95.90
2019-03-22T05:02:19.103Z,95.90
2019-03-22T05:04:50.172Z,95.90
2019-03-22T05:07:20.810Z,96.10
2019-03-22T05:09:51.382Z,96.10
2019-03-22T05:12:22.537Z,96.10
2019-03-22T05:14:53.982Z,95.80
2019-03-22T05:17:25.038Z,96.10
2019-03-22T05:19:58.190Z,96.20
2019-03-22T05:22:30.425Z,96.10
2019-03-22T05:25:03.166Z,96.20
2019-03-22T05:27:36.388Z,96.20
2019-03-22T05:30:08.730Z,96.20
2019-03-22T05:32:38.709Z,96.20
2019-03-22T05:35:08.694Z,96.30
2019-03-22T05:37:38.642Z,96.30
2019-03-22T05:40:08.687Z,96.40
2019-03-22T05:42:38.674Z,96.30
2019-03-22T05:45:09.070Z,96.30
2019-03-22T05:47:39.022Z,96.40
2019-03-22T05:50:09.001Z,96.30
2019-03-22T05:52:38.949Z,96.40
2019-03-22T05:55:09.440Z,96.70
2019-03-22T05:57:39.388Z,96.30
2019-03-22T06:00:09.635Z,96.40
2019-03-22T06:02:39.621Z,96.50
2019-03-22T06:05:09.608Z,96.60
2019-03-22T06:07:39.550Z,96.60
2019-03-22T06:10:09.818Z,96.70
2019-03-22T06:12:39.783Z,96.70
2019-03-22T06:15:10.207Z,96.90
2019-03-22T06:17:50.964Z,97.00
2019-03-22T06:20:12.540Z,97.10
2019-03-22T06:22:42.477Z,97.30
2019-03-22T06:25:12.463Z,97.10
2019-03-22T06:27:42.417Z,97.20
2019-03-22T06:30:12.693Z,97.30
2019-03-22T06:32:42.787Z,95.60
2019-03-22T06:35:14.476Z,95.20
2019-03-22T06:37:44.420Z,94.30
2019-03-22T06:40:14.397Z,93.70
2019-03-22T06:42:44.340Z,93.50
2019-03-22T06:45:14.434Z,93.30
2019-03-22T06:47:44.433Z,92.60
2019-03-22T06:50:14.413Z,92.40
2019-03-22T06:52:44.361Z,93.20
2019-03-22T06:55:14.342Z,92.80
2019-03-22T06:57:44.297Z,92.30
2019-03-22T07:00:14.296Z,92.00
2019-03-22T07:02:44.246Z,92.30
2019-03-22T07:05:14.226Z,92.50
2019-03-22T07:07:44.269Z,93.70
2019-03-22T07:10:14.436Z,90.90
2019-03-22T07:12:44.390Z,91.60
2019-03-22T07:15:14.969Z,93.80
2019-03-22T07:17:44.930Z,91.30
2019-03-22T07:20:14.925Z,92.30
2019-03-22T07:22:44.881Z,91.70
2019-03-22T07:25:14.871Z,90.60
2019-03-22T07:27:44.816Z,90.40
2019-03-22T07:30:18.918Z,90.10
2019-03-22T07:32:46.585Z,92.30
2019-03-22T07:35:16.560Z,89.70
2019-03-22T07:37:46.509Z,90.00
2019-03-22T07:40:16.481Z,89.70
2019-03-22T07:42:46.455Z,89.30
2019-03-22T07:45:16.447Z,89.10
2019-03-22T07:47:46.516Z,88.40
2019-03-22T07:50:16.501Z,90.50
2019-03-22T07:52:46.470Z,90.90
2019-03-22T07:55:16.503Z,92.10
2019-03-22T07:57:46.489Z,92.40
2019-03-22T08:00:16.682Z,91.30
2019-03-22T08:02:46.640Z,92.40
2019-03-22T08:05:16.618Z,92.20
2019-03-22T08:07:46.569Z,90.60
2019-03-22T08:10:16.567Z,90.80
2019-03-22T08:12:46.523Z,91.70
2019-03-22T08:15:31.969Z,93.30
2019-03-22T08:18:02.472Z,93.40
2019-03-22T08:20:32.647Z,92.40
2019-03-22T08:23:05.184Z,92.70
2019-03-22T08:25:35.183Z,92.30
2019-03-22T08:28:05.126Z,91.80
2019-03-22T08:30:42.951Z,90.30
2019-03-22T08:33:06.775Z,91.90
2019-03-22T08:35:36.752Z,91.90
2019-03-22T08:38:06.741Z,92.00
2019-03-22T08:40:36.741Z,93.20
2019-03-22T08:43:06.717Z,92.00
2019-03-22T08:45:36.715Z,90.70
2019-03-22T08:48:06.720Z,90.20
2019-03-22T08:50:36.680Z,89.60
2019-03-22T08:53:06.635Z,88.10
2019-03-22T08:55:36.731Z,86.00
2019-03-22T08:58:06.690Z,83.70
2019-03-22T09:00:39.434Z,84.10
2019-03-22T09:03:08.390Z,85.90
2019-03-22T09:05:38.369Z,83.80
2019-03-22T09:08:08.340Z,84.70
2019-03-22T09:10:38.423Z,80.70
2019-03-22T09:13:08.383Z,78.40
2019-03-22T09:15:41.742Z,78.00
2019-03-22T09:18:09.976Z,77.00
2019-03-22T09:20:39.993Z,79.80
2019-03-22T09:23:09.934Z,75.10
2019-03-22T09:25:39.916Z,76.20
2019-03-22T09:28:10.510Z,76.40
2019-03-22T09:30:40.585Z,75.80
2019-03-22T09:33:13.329Z,74.50
2019-03-22T09:35:42.316Z,72.20
2019-03-22T09:38:13.287Z,70.20
2019-03-22T09:40:43.613Z,69.90
2019-03-22T09:43:13.571Z,71.20
2019-03-22T09:45:43.576Z,65.90
2019-03-22T09:48:13.573Z,66.20
2019-03-22T09:50:43.478Z,70.20
2019-03-22T09:53:13.466Z,71.70
2019-03-22T09:55:43.435Z,69.30
2019-03-22T09:58:13.404Z,68.80
2019-03-22T10:00:43.520Z,64.40
2019-03-22T10:03:13.588Z,67.00
2019-03-22T10:05:43.624Z,64.00
2019-03-22T10:08:13.637Z,67.40
2019-03-22T10:10:43.583Z,65.20
2019-03-22T10:13:13.566Z,68.40
2019-03-22T10:15:43.656Z,64.90
2019-03-22T10:18:13.703Z,67.30
2019-03-22T10:20:43.692Z,64.90
2019-03-22T10:23:13.681Z,70.80
2019-03-22T10:25:43.600Z,65.60
2019-03-22T10:28:13.640Z,69.60
2019-03-22T10:30:43.977Z,73.20
2019-03-22T10:33:22.705Z,72.80
2019-03-22T10:35:45.563Z,69.90
2019-03-22T10:38:16.630Z,67.90
2019-03-22T10:40:46.875Z,66.60
2019-03-22T10:43:16.850Z,65.40
2019-03-22T10:45:46.817Z,67.30
2019-03-22T10:48:16.786Z,63.80
2019-03-22T10:50:46.725Z,69.00
2019-03-22T10:53:16.811Z,69.10
2019-03-22T10:55:46.733Z,68.00
2019-03-22T10:58:21.216Z,68.80
2019-03-22T11:00:48.310Z,66.80
2019-03-22T11:03:18.275Z,67.50
2019-03-22T11:05:48.241Z,69.40
2019-03-22T11:08:18.240Z,69.60
2019-03-22T11:10:48.239Z,71.80
2019-03-22T11:13:18.209Z,71.40
2019-03-22T11:15:48.929Z,72.30
2019-03-22T11:18:19.132Z,67.60
2019-03-22T11:20:49.085Z,68.80
2019-03-22T11:23:19.447Z,71.30
2019-03-22T11:25:49.440Z,72.70
2019-03-22T11:28:19.423Z,65.90
2019-03-22T11:30:49.404Z,64.80
2019-03-22T11:33:19.376Z,68.30
2019-03-22T11:35:49.335Z,64.20
2019-03-22T11:38:19.312Z,63.80
2019-03-22T11:40:49.261Z,65.50
2019-03-22T11:43:19.289Z,63.90
2019-03-22T11:45:49.281Z,68.50
2019-03-22T11:48:19.684Z,60.80
2019-03-22T11:50:50.137Z,65.50
2019-03-22T11:53:20.512Z,65.40
2019-03-22T11:55:50.822Z,63.20
2019-03-22T11:58:20.797Z,60.40
2019-03-22T12:00:50.746Z,61.80
2019-03-22T12:03:20.923Z,66.70
2019-03-22T12:05:50.969Z,65.10
2019-03-22T12:08:21.682Z,58.60
2019-03-22T12:10:51.606Z,61.80
2019-03-22T12:13:21.576Z,61.30
2019-03-22T12:15:51.534Z,60.80
2019-03-22T12:18:21.501Z,59.10
2019-03-22T12:20:51.450Z,61.00
2019-03-22T12:23:21.669Z,60.00
2019-03-22T12:25:51.599Z,59.90
2019-03-22T12:28:21.929Z,61.60
2019-03-22T12:30:53.154Z,60.90
2019-03-22T12:33:23.134Z,63.90
2019-03-22T12:35:53.089Z,60.20
2019-03-22T12:38:23.165Z,58.00
2019-03-22T12:40:53.104Z,62.40
2019-03-22T12:43:23.080Z,65.90
2019-03-22T12:45:53.079Z,59.90
2019-03-22T12:48:23.074Z,63.90
2019-03-22T12:50:53.089Z,57.30
2019-03-22T12:53:23.290Z,62.90
2019-03-22T12:55:53.234Z,58.30
2019-03-22T12:58:23.201Z,61.70
2019-03-22T13:00:53.432Z,62.30
2019-03-22T13:03:24.375Z,62.00
2019-03-22T13:05:54.520Z,58.90
2019-03-22T13:08:24.513Z,60.40
2019-03-22T13:10:54.481Z,64.70
2019-03-22T13:13:24.453Z,61.10
2019-03-22T13:15:54.417Z,58.00
2019-03-22T13:18:24.435Z,62.70
2019-03-22T13:20:54.398Z,57.40
2019-03-22T13:23:24.391Z,56.50
2019-03-22T13:25:54.343Z,54.70
2019-03-22T13:28:24.317Z,54.90
2019-03-22T13:30:54.308Z,54.20
2019-03-22T13:33:24.290Z,57.40
2019-03-22T13:35:54.238Z,56.80
2019-03-22T13:38:24.291Z,59.80
2019-03-22T13:40:54.425Z,56.20
2019-03-22T13:43:24.534Z,57.20
2019-03-22T13:45:54.526Z,58.10
2019-03-22T13:48:25.689Z,52.10
2019-03-22T13:50:55.672Z,53.80
2019-03-22T13:53:25.786Z,54.40
2019-03-22T13:55:55.777Z,56.20
2019-03-22T13:58:25.739Z,56.10
2019-03-22T14:00:55.725Z,55.80
2019-03-22T14:03:25.680Z,56.60
2019-03-22T14:05:55.670Z,54.50
2019-03-22T14:08:27.068Z,55.20
2019-03-22T14:10:57.188Z,53.40
2019-03-22T14:13:27.140Z,52.40
2019-03-22T14:15:57.186Z,56.70
2019-03-22T14:18:27.214Z,57.10
2019-03-22T14:20:57.199Z,58.90
2019-03-22T14:23:27.177Z,57.80
2019-03-22T14:25:57.139Z,54.90
2019-03-22T14:28:27.088Z,54.10
2019-03-22T14:30:57.174Z,56.20
2019-03-22T14:33:27.116Z,55.00
2019-03-22T14:35:57.159Z,55.10
2019-03-22T14:38:28.214Z,54.80
2019-03-22T14:40:58.310Z,50.90
2019-03-22T14:43:28.439Z,57.70
2019-03-22T14:45:58.441Z,54.40
2019-03-22T14:48:28.396Z,54.60
2019-03-22T14:50:58.374Z,53.30
2019-03-22T14:53:28.364Z,53.80
2019-03-22T14:55:58.333Z,48.30
2019-03-22T14:58:28.355Z,52.00
2019-03-22T15:00:58.347Z,52.20
2019-03-22T15:03:28.799Z,56.00
2019-03-22T15:05:58.945Z,56.70
2019-03-22T15:08:29.005Z,50.00
2019-03-22T15:10:59.099Z,52.60
2019-03-22T15:13:34.325Z,50.40
2019-03-22T15:16:23.475Z,50.00
2019-03-22T15:19:11.441Z,51.70
2019-03-22T15:21:55.240Z,47.80
2019-03-22T15:24:44.140Z,48.20
2019-03-22T15:27:35.729Z,48.10
2019-03-22T15:30:34.498Z,49.70
2019-03-22T15:33:16.880Z,52.00
2019-03-22T15:36:08.751Z,50.00
2019-03-22T15:38:58.007Z,53.40
2019-03-22T15:41:27.993Z,49.60
2019-03-22T15:43:57.953Z,49.70
2019-03-22T15:46:28.065Z,51.90
2019-03-22T15:48:57.983Z,52.60
2019-03-22T15:51:27.957Z,53.40
2019-03-22T15:53:57.917Z,52.60
2019-03-22T15:56:27.905Z,54.10
2019-03-22T15:58:57.861Z,54.60
2019-03-22T16:01:27.851Z,53.30
2019-03-22T16:03:57.836Z,53.90
2019-03-22T16:06:27.870Z,55.80
2019-03-22T16:08:57.826Z,55.90
2019-03-22T16:11:27.809Z,54.10
2019-03-22T16:13:57.856Z,55.40
2019-03-22T16:16:27.861Z,55.20
2019-03-22T16:18:57.841Z,55.40
2019-03-22T16:21:27.805Z,57.80
2019-03-22T16:23:57.837Z,58.10
2019-03-22T16:26:27.814Z,58.10
2019-03-22T16:28:57.794Z,57.30
2019-03-22T16:31:27.768Z,59.00
2019-03-22T16:33:57.806Z,58.70
2019-03-22T16:36:27.787Z,59.30
2019-03-22T16:38:57.798Z,60.70
2019-03-22T16:41:27.773Z,60.70
2019-03-22T16:43:57.761Z,59.70
2019-03-22T16:46:28.056Z,60.20
2019-03-22T16:48:58.962Z,59.90
2019-03-22T16:51:28.911Z,61.30
2019-03-22T16:53:58.966Z,61.00
2019-03-22T16:56:28.944Z,60.60
2019-03-22T16:58:58.899Z,60.20
2019-03-22T17:01:28.853Z,59.80
2019-03-22T17:04:04.346Z,59.80
2019-03-22T17:06:30.473Z,61.30
2019-03-22T17:09:00.804Z,61.80
2019-03-22T17:11:30.786Z,62.50
2019-03-22T17:14:00.761Z,63.80
2019-03-22T17:16:30.739Z,63.60
2019-03-22T17:19:00.751Z,64.00
2019-03-22T17:21:30.867Z,66.70
2019-03-22T17:24:00.891Z,67.50
2019-03-22T17:26:30.902Z,68.50
2019-03-22T17:29:00.878Z,68.00
2019-03-22T17:31:30.877Z,67.40
2019-03-22T17:34:00.897Z,68.60
2019-03-22T17:36:30.861Z,68.30
2019-03-22T17:39:00.850Z,68.80
2019-03-22T17:41:30.820Z,68.70
2019-03-22T17:44:00.796Z,68.60
2019-03-22T17:46:30.832Z,69.50
2019-03-22T17:49:00.834Z,70.80
2019-03-22T17:51:30.867Z,70.10
2019-03-22T17:54:00.868Z,75.40
2019-03-22T17:56:30.840Z,74.40
2019-03-22T17:59:00.826Z,76.60
2019-03-22T18:01:31.007Z,77.40
2019-03-22T18:04:01.012Z,78.10
2019-03-22T18:06:30.981Z,79.00
2019-03-22T18:09:00.965Z,79.40
2019-03-22T18:11:30.933Z,79.90
2019-03-22T18:14:00.950Z,80.40
2019-03-22T18:16:30.918Z,81.10
2019-03-22T18:19:01.106Z,81.50
2019-03-22T18:21:31.073Z,81.70
2019-03-22T18:24:01.126Z,82.80
2019-03-22T18:26:31.090Z,82.50
2019-03-22T18:29:01.064Z,83.10
2019-03-22T18:31:31.057Z,83.60
2019-03-22T18:34:01.046Z,83.60
2019-03-22T18:36:30.997Z,84.10
2019-03-22T18:39:01.024Z,84.40
2019-03-22T18:41:30.978Z,84.70
2019-03-22T18:44:00.978Z,84.80
2019-03-22T18:46:31.058Z,85.20
2019-03-22T18:49:01.080Z,85.30
2019-03-22T18:51:31.085Z,85.60
2019-03-22T18:54:01.050Z,85.90
2019-03-22T18:56:31.099Z,85.90
2019-03-22T18:59:01.046Z,86.60
2019-03-22T19:01:31.063Z,86.30
2019-03-22T19:04:01.046Z,86.50
2019-03-22T19:06:31.036Z,86.40
2019-03-22T19:09:01.006Z,86.70
2019-03-22T19:11:30.993Z,87.00
2019-03-22T19:14:00.945Z,87.20
2019-03-22T19:16:31.012Z,87.60
2019-03-22T19:19:00.977Z,87.50
2019-03-22T19:21:31.130Z,87.80
2019-03-22T19:24:01.090Z,88.00
2019-03-22T19:26:31.085Z,88.10
2019-03-22T19:29:01.142Z,88.30
2019-03-22T19:31:31.233Z,88.60
2019-03-22T19:34:01.198Z,88.70
2019-03-22T19:36:31.195Z,89.10
2019-03-22T19:39:01.141Z,89.20
2019-03-22T19:41:31.108Z,89.40
2019-03-22T19:44:01.206Z,89.60
2019-03-22T19:46:31.161Z,90.30
2019-03-22T19:49:01.126Z,90.40
2019-03-22T19:51:31.108Z,90.50
2019-03-22T19:54:01.069Z,90.60
2019-03-22T19:56:31.051Z,90.70
2019-03-22T19:59:01.055Z,90.80
2019-03-22T20:01:31.039Z,90.90
2019-03-22T20:04:01.100Z,90.90
2019-03-22T20:06:31.098Z,91.00
2019-03-22T20:09:02.031Z,91.00
2019-03-22T20:11:32.078Z,91.30
2019-03-22T20:14:02.199Z,90.90
2019-03-22T20:16:32.242Z,90.70
2019-03-22T20:19:02.205Z,90.90
2019-03-22T20:21:32.313Z,91.00
2019-03-22T20:24:02.278Z,91.00
2019-03-22T20:26:32.279Z,91.00
2019-03-22T20:29:02.278Z,91.00
2019-03-22T20:31:32.279Z,91.10
2019-03-22T20:34:02.232Z,91.10
2019-03-22T20:36:32.217Z,91.10
2019-03-22T20:39:02.158Z,91.10
2019-03-22T20:41:32.134Z,91.20
2019-03-22T20:44:02.087Z,91.30
2019-03-22T20:46:32.116Z,91.30
2019-03-22T20:49:02.067Z,91.30
2019-03-22T20:51:32.265Z,91.40
2019-03-22T20:54:02.235Z,91.40
2019-03-22T20:56:32.225Z,91.30
2019-03-22T20:59:02.191Z,91.40
2019-03-22T21:01:32.222Z,91.50
2019-03-22T21:04:02.223Z,91.50
2019-03-22T21:06:32.197Z,91.40
2019-03-22T21:09:02.172Z,91.50
2019-03-22T21:11:32.126Z,91.50
2019-03-22T21:14:02.118Z,91.50
2019-03-22T21:16:32.132Z,91.60
2019-03-22T21:19:02.120Z,91.60
2019-03-22T21:21:36.589Z,91.70
2019-03-22T21:24:03.751Z,91.80
2019-03-22T21:26:33.740Z,91.90
2019-03-22T21:29:03.757Z,92.00
2019-03-22T21:31:33.738Z,91.90
2019-03-22T21:34:03.756Z,92.00
2019-03-22T21:36:33.829Z,92.00
2019-03-22T21:39:05.123Z,92.10
2019-03-22T21:41:35.285Z,92.20
2019-03-22T21:44:05.265Z,92.20
2019-03-22T21:46:35.240Z,92.30
2019-03-22T21:49:05.200Z,92.30
2019-03-22T21:51:35.173Z,92.40
2019-03-22T21:54:05.128Z,92.40
2019-03-22T21:56:35.153Z,92.60
2019-03-22T21:59:05.166Z,92.60
2019-03-22T22:01:35.136Z,92.70
2019-03-22T22:04:05.118Z,92.80
2019-03-22T22:06:35.133Z,92.80
2019-03-22T22:09:07.017Z,92.90
2019-03-22T22:11:37.219Z,93.00
2019-03-22T22:14:07.197Z,93.00
2019-03-22T22:16:37.937Z,93.10
2019-03-22T22:19:07.877Z,93.10
2019-03-22T22:21:38.446Z,93.30
2019-03-22T22:24:09.328Z,93.40
2019-03-22T22:26:39.843Z,93.30
2019-03-22T22:29:10.356Z,93.60
2019-03-22T22:31:41.123Z,93.90
2019-03-22T22:34:12.057Z,94.10
2019-03-22T22:36:42.354Z,94.10
2019-03-22T22:39:13.157Z,94.10
2019-03-22T22:41:43.698Z,94.10
2019-03-22T22:44:14.420Z,94.20
2019-03-22T22:46:44.857Z,94.20
2019-03-22T22:49:15.799Z,94.20
2019-03-22T22:51:46.264Z,94.30
2019-03-22T22:54:17.330Z,94.20
2019-03-22T22:56:47.569Z,94.60
2019-03-22T22:59:18.174Z,94.40
2019-03-22T23:01:48.823Z,94.40
2019-03-22T23:04:19.144Z,94.50
2019-03-22T23:06:49.407Z,94.50
2019-03-22T23:09:19.760Z,94.60
2019-03-22T23:11:50.114Z,94.60
2019-03-22T23:14:20.801Z,94.60
2019-03-22T23:16:51.173Z,94.60
2019-03-22T23:19:21.699Z,94.70
2019-03-22T23:21:52.005Z,94.70
2019-03-22T23:24:22.462Z,94.70
2019-03-22T23:26:53.438Z,94.80
2019-03-22T23:29:23.703Z,94.80
2019-03-22T23:31:54.210Z,94.80
2019-03-22T23:34:24.683Z,94.90
2019-03-22T23:36:55.381Z,94.80
2019-03-22T23:39:25.410Z,94.90
2019-03-22T23:41:56.014Z,95.00
2019-03-22T23:44:26.636Z,95.00
2019-03-22T23:46:58.285Z,95.10
2019-03-22T23:49:28.924Z,95.10
2019-03-22T23:51:59.178Z,95.20
2019-03-22T23:54:29.707Z,95.30
2019-03-22T23:57:00.247Z,95.40
2019-03-22T23:59:30.485Z,95.70
